Vers la page d'accueil de NAV CANADA Ouverture d'une nouvelle session Chercher sur le site AWWS Clause de non-reponsabilité To the equivalent English page Trucs et astuces FAQ Quoi de neuf sur le site Vers la section Prévisions et observations / NOTAM Vers le site web pour <<Déposer un plan de vol>> Publications et liens importants Mise à jour du profil d'usager Numéros de téléphone des FIC Mes données météo personnelles Données météo de route Données météo régionales Données météo locales Vers la section Prévisions et observations / NOTAM
Requête générée le 2022/06/30 à 11:14:36 UTC. L'information météorologique disponible à ce moment est affichée.

METAR/TAF

Si vous notez des différences entre le METAR/TAF codé et le METAR/TAF en langage clair, veuillez utiliser la version codée. Les bulletins LWIS ne sont pas décodés en langage clair.

OTTAWA/GATINEAU/QC    

METAR CYND 301100Z VRB02KT 8SM VCFG FEW002 BKN240 13/12 A3022 RMK FG1SF1CI5 FG SLP235=
METAR
LIEU
CYND - OTTAWA/GATINEAU/QC
DATE - HEURE
30 JUIN 2022 - 1100 UTC
VENT
VRB @ 2  NOEUDS
VISIBILITE
8 MILLES TERR.
PORTEE VISUELLE DE PISTE
METEO
DANS LE VOISINAGE
BROUILLARD
NEBULOSITE
QUELQUES NUAGES (1/8 - 2/8) 200  PI
NUAGES FRAGMENTES (5/8 - 7/8) 24000  PI
TEMP / PT DE ROSEE
13 C / 12 C
ALTIMETRE
30.22 PO HG
TEMPS RECENT
CISAILLEMENT

LWIS CYND 301000Z AUTO VRB02KT 10/10 A3020=

LWIS CYND 300900Z AUTO 00000KT 09/09 A3019=

*** REMARQUE : La période de prévision est échue; ceci était le dernier TAF qui a été émis
Votre heure Heure UTC
Données météorologiques fournies par Environnement Canada et NAV CANADA